createdAt,value
2019-05-22T00:38:07.140Z,12.56
2019-05-22T00:38:07.688Z,12.66
2019-05-22T00:38:08.285Z,12.64
2019-05-22T00:38:09.128Z,12.64
2019-05-22T00:38:09.807Z,12.67
2019-05-22T00:38:10.275Z,12.63
2019-05-22T00:39:05.783Z,12.62
2019-05-22T00:39:06.353Z,12.66
2019-05-22T00:39:06.954Z,12.67
2019-05-22T00:39:07.554Z,12.69
2019-05-22T00:39:08.154Z,12.71
2019-05-22T00:39:08.753Z,12.66
2019-05-22T00:40:04.457Z,12.71
2019-05-22T00:40:05.031Z,12.67
2019-05-22T00:40:05.631Z,12.66
2019-05-22T00:40:06.231Z,12.62
2019-05-22T00:40:06.830Z,12.70
2019-05-22T00:40:07.432Z,12.69
2019-05-22T00:41:02.110Z,12.66
2019-05-22T00:41:02.685Z,12.70
2019-05-22T00:41:03.292Z,12.64
2019-05-22T00:41:03.899Z,12.70
2019-05-22T00:41:04.483Z,12.67
2019-05-22T00:42:00.794Z,12.67
2019-05-22T00:42:01.358Z,12.62
2019-05-22T00:42:01.959Z,12.64
2019-05-22T00:42:02.562Z,12.69
2019-05-22T00:42:03.159Z,12.60
2019-05-22T00:42:03.760Z,12.64
2019-05-22T00:43:04.061Z,12.75
2019-05-22T00:43:04.159Z,12.64
2019-05-22T00:43:04.244Z,12.67
2019-05-22T00:43:04.256Z,12.70
2019-05-22T00:43:05.525Z,12.70
2019-05-22T00:43:06.759Z,12.70
2019-05-22T00:43:56.092Z,12.67
2019-05-22T00:43:56.663Z,12.71
2019-05-22T00:43:57.263Z,12.70
2019-05-22T00:43:57.864Z,12.67
2019-05-22T00:43:58.464Z,12.67
2019-05-22T00:44:54.771Z,12.64
2019-05-22T00:44:55.340Z,12.75
2019-05-22T00:44:55.939Z,12.64
2019-05-22T00:44:56.539Z,12.67
2019-05-22T00:44:57.138Z,12.70
2019-05-22T00:44:57.738Z,12.69
2019-05-22T00:45:52.422Z,12.67
2019-05-22T00:45:52.993Z,12.64
2019-05-22T00:45:53.591Z,12.69
2019-05-22T00:45:54.192Z,12.66
2019-05-22T00:45:54.805Z,12.67
2019-05-22T00:45:55.393Z,12.67
2019-05-22T00:46:50.072Z,12.70
2019-05-22T00:46:50.645Z,12.67
2019-05-22T00:46:51.245Z,12.67
2019-05-22T00:46:51.846Z,12.71
2019-05-22T00:46:52.444Z,12.67
2019-05-22T00:47:48.747Z,12.71
2019-05-22T00:47:49.319Z,12.75
2019-05-22T00:47:49.920Z,12.63
2019-05-22T00:47:50.519Z,12.74
2019-05-22T00:47:51.119Z,12.69
2019-05-22T00:47:51.721Z,12.71
2019-05-22T00:48:46.403Z,12.70
2019-05-22T00:48:46.971Z,12.74
2019-05-22T00:48:47.571Z,12.77
2019-05-22T00:48:48.172Z,12.66
2019-05-22T00:48:48.772Z,12.79
2019-05-22T00:48:49.373Z,12.70
2019-05-22T00:49:44.051Z,12.69
2019-05-22T00:49:44.624Z,12.79
2019-05-22T00:49:45.223Z,12.75
2019-05-22T00:49:45.826Z,12.74
2019-05-22T00:49:46.425Z,12.70
2019-05-22T00:50:41.703Z,12.79
2019-05-22T00:50:42.276Z,12.82
2019-05-22T00:50:42.876Z,12.79
2019-05-22T00:50:43.475Z,12.82
2019-05-22T00:50:44.125Z,12.70
2019-05-22T00:50:44.690Z,12.82
2019-05-22T00:51:39.355Z,12.79
2019-05-22T00:51:39.930Z,12.77
2019-05-22T00:51:40.528Z,12.74
2019-05-22T00:51:41.139Z,12.78
2019-05-22T00:51:41.728Z,12.70
2019-05-22T00:51:42.327Z,12.71
2019-05-22T00:52:38.033Z,12.79
2019-05-22T00:52:38.603Z,12.78
2019-05-22T00:52:39.202Z,12.74
2019-05-22T00:52:39.806Z,12.77
2019-05-22T00:52:40.406Z,12.78
2019-05-22T00:52:42.205Z,12.82
2019-05-22T00:53:36.705Z,12.78
2019-05-22T00:53:37.279Z,12.77
2019-05-22T00:53:37.878Z,12.70
2019-05-22T00:53:38.477Z,12.75
2019-05-22T00:53:39.090Z,12.74
2019-05-22T00:54:34.359Z,12.70
2019-05-22T00:54:34.932Z,12.89
2019-05-22T00:54:35.531Z,12.71
2019-05-22T00:54:36.130Z,12.77
2019-05-22T00:54:36.732Z,12.79
2019-05-22T00:54:37.332Z,12.82
2019-05-22T00:55:33.034Z,12.75
2019-05-22T00:55:33.606Z,12.77
2019-05-22T00:55:34.208Z,12.77
2019-05-22T00:55:34.808Z,12.81
2019-05-22T00:55:35.405Z,12.82
2019-05-22T00:55:36.006Z,12.78
2019-05-22T00:56:31.717Z,12.77
2019-05-22T00:56:32.282Z,12.84
2019-05-22T00:56:32.882Z,12.81
2019-05-22T00:56:33.481Z,12.71
2019-05-22T00:56:34.082Z,12.78
2019-05-22T00:56:34.687Z,12.84
2019-05-22T00:57:30.385Z,12.78
2019-05-22T00:57:30.959Z,12.81
2019-05-22T00:57:31.558Z,12.84
2019-05-22T00:57:32.157Z,12.77
2019-05-22T00:57:32.756Z,12.85
2019-05-22T00:57:34.560Z,12.88
2019-05-22T00:58:29.059Z,12.77
2019-05-22T00:58:29.637Z,12.88
2019-05-22T00:58:30.235Z,12.89
2019-05-22T00:58:30.833Z,12.89
2019-05-22T00:58:31.444Z,12.85
2019-05-22T00:59:26.716Z,12.85
2019-05-22T00:59:27.285Z,12.88
2019-05-22T00:59:27.886Z,12.87
2019-05-22T00:59:28.486Z,12.87
2019-05-22T00:59:29.089Z,12.84
2019-05-22T00:59:29.686Z,12.82
2019-05-22T01:00:24.367Z,12.89
2019-05-22T01:00:24.946Z,12.79
2019-05-22T01:00:25.537Z,12.85
2019-05-22T01:00:26.137Z,12.88
2019-05-22T01:00:26.756Z,12.79
2019-05-22T01:00:27.335Z,12.85
2019-05-22T01:01:22.018Z,12.88
2019-05-22T01:01:22.788Z,12.92
2019-05-22T01:01:23.188Z,12.87
2019-05-22T01:01:23.787Z,12.88
2019-05-22T01:01:24.391Z,12.88
2019-05-22T01:02:20.692Z,12.87
2019-05-22T01:02:21.264Z,12.88
2019-05-22T01:02:21.866Z,12.88
2019-05-22T01:02:22.465Z,12.92
2019-05-22T01:02:23.067Z,12.88
2019-05-22T01:02:23.663Z,12.84
2019-05-22T01:03:19.367Z,12.81
2019-05-22T01:03:19.940Z,12.92
2019-05-22T01:03:20.541Z,12.87
2019-05-22T01:03:21.150Z,12.87
2019-05-22T01:03:21.740Z,12.85
2019-05-22T01:03:22.342Z,12.79
2019-05-22T01:04:17.020Z,12.89
2019-05-22T01:04:17.593Z,12.85
2019-05-22T01:04:18.193Z,12.87
2019-05-22T01:04:18.792Z,12.87
2019-05-22T01:04:19.393Z,12.87
2019-05-22T01:04:21.193Z,12.92
2019-05-22T01:05:15.694Z,12.85
2019-05-22T01:05:16.269Z,12.88
2019-05-22T01:05:16.865Z,12.87
2019-05-22T01:05:17.468Z,12.81
2019-05-22T01:05:18.074Z,12.87
2019-05-22T01:06:14.371Z,12.74
2019-05-22T01:06:14.944Z,12.82
2019-05-22T01:06:15.542Z,12.88
2019-05-22T01:06:16.149Z,12.89
2019-05-22T01:06:16.742Z,12.92
2019-05-22T01:06:17.348Z,12.87
2019-05-22T01:07:13.047Z,12.89
2019-05-22T01:07:13.619Z,12.82
2019-05-22T01:07:14.218Z,12.88
2019-05-22T01:07:14.818Z,12.92
2019-05-22T01:07:15.419Z,12.87
2019-05-22T01:07:16.019Z,12.88
2019-05-22T01:08:11.723Z,12.88
2019-05-22T01:08:12.294Z,12.85
2019-05-22T01:08:12.895Z,12.87
2019-05-22T01:08:13.494Z,12.87
2019-05-22T01:08:14.095Z,12.87
2019-05-22T01:08:14.694Z,12.88
2019-05-22T01:09:09.376Z,12.87
2019-05-22T01:09:09.947Z,12.92
2019-05-22T01:09:10.545Z,12.88
2019-05-22T01:09:11.149Z,12.84
2019-05-22T01:09:11.746Z,12.81
2019-05-22T01:10:08.122Z,12.87
2019-05-22T01:10:08.621Z,12.85
2019-05-22T01:10:09.222Z,12.85
2019-05-22T01:10:09.820Z,12.84
2019-05-22T01:10:10.421Z,12.95
2019-05-22T01:10:11.098Z,12.88
2019-05-22T01:11:06.725Z,12.81
2019-05-22T01:11:07.298Z,12.87
2019-05-22T01:11:07.897Z,12.84
2019-05-22T01:11:08.497Z,12.85
2019-05-22T01:11:09.097Z,12.84
2019-05-22T01:11:09.697Z,12.85
2019-05-22T01:12:04.383Z,12.89
2019-05-22T01:12:04.951Z,12.87
2019-05-22T01:12:05.552Z,12.87
2019-05-22T01:12:06.151Z,12.85
2019-05-22T01:12:06.751Z,12.84
2019-05-22T01:12:08.550Z,12.85
2019-05-22T01:13:02.029Z,12.84
2019-05-22T01:13:02.602Z,12.99
2019-05-22T01:13:03.203Z,12.89
2019-05-22T01:13:03.803Z,12.99
2019-05-22T01:13:04.408Z,12.92
2019-05-22T01:14:00.704Z,13.00
2019-05-22T01:14:01.280Z,12.99
2019-05-22T01:14:01.880Z,12.96
2019-05-22T01:14:02.477Z,13.02
2019-05-22T01:14:03.077Z,12.95
2019-05-22T01:14:03.677Z,12.99
2019-05-22T01:14:58.391Z,12.99
2019-05-22T01:14:58.929Z,13.02
2019-05-22T01:14:59.529Z,13.03
2019-05-22T01:15:00.135Z,12.99
2019-05-22T01:15:00.729Z,12.99
2019-05-22T01:15:01.343Z,12.96
2019-05-22T01:15:56.009Z,12.97
2019-05-22T01:15:56.583Z,12.96
2019-05-22T01:15:57.181Z,12.99
2019-05-22T01:15:57.784Z,12.99
2019-05-22T01:15:58.380Z,12.96
2019-05-22T01:16:54.683Z,12.99
2019-05-22T01:16:55.256Z,12.99
2019-05-22T01:16:55.857Z,12.99
2019-05-22T01:16:56.455Z,13.00
2019-05-22T01:16:57.056Z,12.92
2019-05-22T01:16:57.656Z,12.96
2019-05-22T01:17:52.340Z,12.99
2019-05-22T01:17:52.909Z,12.99
2019-05-22T01:17:53.509Z,12.96
2019-05-22T01:17:54.111Z,12.95
2019-05-22T01:17:54.709Z,12.96
2019-05-22T01:17:55.308Z,13.00
2019-05-22T01:18:51.034Z,12.99
2019-05-22T01:18:51.583Z,12.93
2019-05-22T01:18:52.183Z,12.99
2019-05-22T01:18:52.782Z,13.02
2019-05-22T01:18:53.384Z,12.99
2019-05-22T01:18:55.186Z,12.99
2019-05-22T01:19:48.665Z,12.99
2019-05-22T01:19:49.237Z,12.97
2019-05-22T01:19:49.837Z,13.00
2019-05-22T01:19:50.435Z,12.96
2019-05-22T01:19:51.051Z,13.03
2019-05-22T01:20:47.341Z,12.99
2019-05-22T01:20:47.911Z,12.99
2019-05-22T01:20:48.513Z,12.96
2019-05-22T01:20:49.111Z,12.95
2019-05-22T01:20:49.711Z,12.99
2019-05-22T01:20:50.311Z,13.00
2019-05-22T01:21:46.013Z,13.00
2019-05-22T01:21:46.601Z,13.00
2019-05-22T01:21:47.188Z,13.07
2019-05-22T01:21:47.786Z,12.95
2019-05-22T01:21:48.385Z,13.04
2019-05-22T01:21:48.987Z,12.95
2019-05-22T01:22:47.329Z,12.96
2019-05-22T01:22:47.340Z,13.03
2019-05-22T01:22:47.398Z,12.93
2019-05-22T01:22:47.510Z,12.99
2019-05-22T01:22:47.568Z,12.95
2019-05-22T01:22:47.660Z,12.97
2019-05-22T01:23:43.365Z,12.92
2019-05-22T01:23:43.939Z,12.96
2019-05-22T01:23:44.537Z,12.99
2019-05-22T01:23:45.138Z,12.99
2019-05-22T01:23:45.738Z,13.03
2019-05-22T01:23:47.542Z,12.93
2019-05-22T01:24:41.021Z,12.96
2019-05-22T01:24:41.592Z,13.06
2019-05-22T01:24:42.190Z,13.06
2019-05-22T01:24:42.797Z,13.04
2019-05-22T01:24:43.396Z,13.06
2019-05-22T01:25:38.674Z,12.95
2019-05-22T01:25:39.244Z,12.97
2019-05-22T01:25:39.845Z,12.95
2019-05-22T01:25:40.444Z,13.04
2019-05-22T01:25:41.043Z,13.07
2019-05-22T01:25:41.647Z,13.06
2019-05-22T01:26:36.321Z,13.03
2019-05-22T01:26:36.895Z,13.00
2019-05-22T01:26:37.494Z,13.04
2019-05-22T01:26:38.094Z,12.99
2019-05-22T01:26:38.697Z,12.96
2019-05-22T01:26:39.296Z,12.99
2019-05-22T01:27:34.997Z,13.03
2019-05-22T01:27:35.569Z,13.02
2019-05-22T01:27:36.173Z,13.03
2019-05-22T01:27:36.770Z,13.02
2019-05-22T01:27:37.410Z,12.96
2019-05-22T01:27:39.171Z,13.03
2019-05-22T01:28:33.672Z,13.02
2019-05-22T01:28:34.246Z,13.03
2019-05-22T01:28:34.846Z,13.02
2019-05-22T01:28:35.444Z,13.00
2019-05-22T01:28:36.045Z,13.06
2019-05-22T01:29:31.326Z,13.02
2019-05-22T01:29:31.899Z,13.11
2019-05-22T01:29:32.497Z,13.00
2019-05-22T01:29:33.099Z,13.00
2019-05-22T01:29:33.697Z,13.14
2019-05-22T01:29:34.312Z,13.03
2019-05-22T01:30:30.000Z,13.02
2019-05-22T01:30:30.571Z,13.03
2019-05-22T01:30:31.173Z,13.03
2019-05-22T01:30:31.771Z,13.00
2019-05-22T01:30:32.371Z,13.11
2019-05-22T01:30:32.972Z,13.00
2019-05-22T01:31:28.675Z,12.95
2019-05-22T01:31:29.250Z,12.96
2019-05-22T01:31:29.848Z,12.97
2019-05-22T01:31:30.448Z,13.02
2019-05-22T01:31:31.048Z,13.03
2019-05-22T01:31:31.649Z,13.02
2019-05-22T01:32:27.355Z,13.02
2019-05-22T01:32:27.924Z,13.00
2019-05-22T01:32:28.526Z,13.04
2019-05-22T01:32:29.125Z,12.96
2019-05-22T01:32:29.721Z,13.02
2019-05-22T01:32:31.522Z,12.96
2019-05-22T01:33:26.030Z,13.02
2019-05-22T01:33:26.599Z,12.97
2019-05-22T01:33:27.198Z,13.00
2019-05-22T01:33:27.799Z,13.04
2019-05-22T01:33:28.399Z,13.02
2019-05-22T01:34:23.682Z,13.03
2019-05-22T01:34:24.257Z,13.00
2019-05-22T01:34:24.854Z,13.02
2019-05-22T01:34:25.453Z,12.97
2019-05-22T01:34:26.052Z,12.99
2019-05-22T01:34:26.655Z,12.99
2019-05-22T01:35:22.358Z,13.00
2019-05-22T01:35:22.927Z,13.02
2019-05-22T01:35:23.528Z,12.99
2019-05-22T01:35:24.127Z,13.02
2019-05-22T01:35:24.727Z,13.02
2019-05-22T01:35:25.328Z,13.00
2019-05-22T01:36:21.033Z,13.03
2019-05-22T01:36:21.602Z,13.03
2019-05-22T01:36:22.215Z,12.97
2019-05-22T01:36:22.803Z,13.03
2019-05-22T01:36:23.401Z,13.02
2019-05-22T01:36:24.008Z,13.00
2019-05-22T01:37:18.684Z,13.00
2019-05-22T01:37:19.257Z,12.96
2019-05-22T01:37:19.856Z,13.03
2019-05-22T01:37:20.456Z,13.00
2019-05-22T01:37:21.055Z,13.04
2019-05-22T01:38:17.362Z,13.04
2019-05-22T01:38:17.931Z,13.04
2019-05-22T01:38:18.536Z,13.06
2019-05-22T01:38:19.132Z,13.03
2019-05-22T01:38:19.730Z,13.07
2019-05-22T01:38:20.330Z,13.04
2019-05-22T01:39:15.010Z,13.03
2019-05-22T01:39:15.591Z,13.03
2019-05-22T01:39:16.182Z,13.00
2019-05-22T01:39:16.783Z,13.02
2019-05-22T01:39:17.389Z,13.02
2019-05-22T01:39:17.981Z,13.02
2019-05-22T01:40:13.688Z,13.03
2019-05-22T01:40:14.259Z,13.04
2019-05-22T01:40:14.859Z,12.95
2019-05-22T01:40:15.462Z,12.99
2019-05-22T01:40:16.058Z,13.03
2019-05-22T01:40:17.857Z,13.06
2019-05-22T01:41:12.360Z,13.02
2019-05-22T01:41:12.932Z,13.03
2019-05-22T01:41:13.534Z,12.95
2019-05-22T01:41:14.134Z,13.03
2019-05-22T01:41:14.748Z,13.04
2019-05-22T01:42:11.037Z,12.99
2019-05-22T01:42:11.610Z,13.04
2019-05-22T01:42:12.209Z,13.02
2019-05-22T01:42:12.812Z,13.04
2019-05-22T01:42:13.409Z,13.03
2019-05-22T01:42:14.009Z,13.04
2019-05-22T01:43:08.688Z,12.97
2019-05-22T01:43:09.262Z,13.03
2019-05-22T01:43:09.861Z,13.03
2019-05-22T01:43:10.462Z,13.02
2019-05-22T01:43:11.062Z,13.00
2019-05-22T01:43:11.662Z,13.00
2019-05-22T01:44:06.343Z,13.04
2019-05-22T01:44:06.916Z,13.03
2019-05-22T01:44:07.513Z,12.96
2019-05-22T01:44:08.120Z,12.99
2019-05-22T01:44:08.713Z,13.04
2019-05-22T01:45:06.833Z,13.00
2019-05-22T01:45:06.938Z,13.02
2019-05-22T01:45:06.946Z,13.03
2019-05-22T01:45:07.119Z,13.00
2019-05-22T01:45:07.386Z,12.95
2019-05-22T01:45:07.989Z,13.00
2019-05-22T01:46:03.696Z,13.04
2019-05-22T01:46:04.262Z,13.03
2019-05-22T01:46:04.863Z,12.96
2019-05-22T01:46:05.462Z,13.03
2019-05-22T01:46:06.063Z,12.99
2019-05-22T01:46:06.661Z,13.06
2019-05-22T01:47:02.369Z,13.04
2019-05-22T01:47:02.946Z,13.03
2019-05-22T01:47:03.540Z,13.03
2019-05-22T01:47:04.140Z,13.03
2019-05-22T01:47:04.739Z,13.04
2019-05-22T01:47:05.340Z,13.03
2019-05-22T01:48:01.043Z,12.96
2019-05-22T01:48:01.619Z,13.03
2019-05-22T01:48:02.216Z,13.06
2019-05-22T01:48:02.813Z,13.02
2019-05-22T01:48:03.414Z,13.00
2019-05-22T01:48:05.213Z,13.06
2019-05-22T01:48:59.719Z,13.02
2019-05-22T01:49:00.293Z,13.04
2019-05-22T01:49:00.892Z,12.99
2019-05-22T01:49:01.492Z,13.06
2019-05-22T01:49:02.092Z,13.02
2019-05-22T01:49:58.395Z,13.02
2019-05-22T01:49:58.968Z,13.15
2019-05-22T01:49:59.570Z,13.04
2019-05-22T01:50:00.183Z,13.06
2019-05-22T01:50:00.767Z,13.06
2019-05-22T01:50:01.395Z,13.06
2019-05-22T01:50:56.050Z,13.15
2019-05-22T01:50:56.619Z,12.99
2019-05-22T01:50:57.220Z,13.12
2019-05-22T01:50:57.853Z,13.06
2019-05-22T01:50:58.470Z,13.06
2019-05-22T01:50:59.020Z,13.06
2019-05-22T01:51:53.701Z,13.00
2019-05-22T01:51:54.273Z,13.07
2019-05-22T01:51:54.871Z,13.04
2019-05-22T01:51:55.471Z,13.11
2019-05-22T01:51:56.075Z,13.06
2019-05-22T01:52:52.373Z,13.03
2019-05-22T01:52:52.950Z,13.11
2019-05-22T01:52:53.547Z,13.06
2019-05-22T01:52:54.147Z,13.04
2019-05-22T01:52:54.747Z,13.15
2019-05-22T01:52:55.346Z,13.11
2019-05-22T01:53:51.049Z,13.15
2019-05-22T01:53:51.624Z,13.11
2019-05-22T01:53:52.222Z,13.14
2019-05-22T01:53:52.822Z,13.09
2019-05-22T01:53:53.450Z,13.14
2019-05-22T01:53:54.075Z,13.14
2019-05-22T01:54:49.726Z,13.17
2019-05-22T01:54:50.298Z,13.18
2019-05-22T01:54:50.914Z,13.15
2019-05-22T01:54:51.499Z,13.12
2019-05-22T01:54:52.096Z,13.06
2019-05-22T01:54:52.702Z,13.11
2019-05-22T01:55:47.394Z,13.09
2019-05-22T01:55:47.951Z,13.03
2019-05-22T01:55:48.551Z,13.02
2019-05-22T01:55:49.151Z,13.04
2019-05-22T01:55:49.753Z,13.04
2019-05-22T01:56:46.057Z,13.00
2019-05-22T01:56:46.625Z,12.97
2019-05-22T01:56:47.225Z,13.00
2019-05-22T01:56:47.824Z,13.02
2019-05-22T01:56:48.432Z,13.02
2019-05-22T01:56:49.025Z,13.03
2019-05-22T01:57:43.704Z,13.00
2019-05-22T01:57:44.278Z,13.02
2019-05-22T01:57:44.877Z,12.99
2019-05-22T01:57:45.479Z,12.97
2019-05-22T01:57:46.078Z,13.03
2019-05-22T01:57:46.677Z,12.99
2019-05-22T01:58:41.358Z,12.95
2019-05-22T01:58:41.930Z,13.00
2019-05-22T01:58:42.530Z,13.03
2019-05-22T01:58:43.130Z,13.03
2019-05-22T01:58:43.739Z,13.03
2019-05-22T01:59:39.015Z,13.06
2019-05-22T01:59:39.583Z,13.03
2019-05-22T01:59:40.183Z,13.02
2019-05-22T01:59:40.782Z,12.99
2019-05-22T01:59:41.382Z,13.00
2019-05-22T01:59:41.986Z,13.02
2019-05-22T02:00:37.684Z,13.04
2019-05-22T02:00:38.259Z,12.92
2019-05-22T02:00:38.904Z,12.97
2019-05-22T02:00:39.453Z,12.96
2019-05-22T02:00:40.054Z,13.09
2019-05-22T02:00:40.654Z,13.00
2019-05-22T02:01:36.360Z,13.03
2019-05-22T02:01:36.949Z,13.02
2019-05-22T02:01:37.534Z,13.03
2019-05-22T02:01:38.135Z,12.99
2019-05-22T02:01:38.732Z,13.00
2019-05-22T02:01:39.332Z,12.92
2019-05-22T02:02:35.034Z,13.02
2019-05-22T02:02:35.607Z,12.99
2019-05-22T02:02:36.207Z,13.06
2019-05-22T02:02:36.808Z,13.04
2019-05-22T02:02:37.406Z,13.04
2019-05-22T02:02:39.207Z,13.04
2019-05-22T02:03:32.690Z,13.03
2019-05-22T02:03:33.259Z,13.02
2019-05-22T02:03:33.860Z,13.04
2019-05-22T02:03:34.462Z,13.06
2019-05-22T02:03:35.059Z,13.06
2019-05-22T02:04:30.339Z,13.02
2019-05-22T02:04:30.913Z,13.06
2019-05-22T02:04:31.513Z,13.06
2019-05-22T02:04:32.113Z,13.07
2019-05-22T02:04:32.714Z,13.04
2019-05-22T02:04:33.311Z,13.11
2019-05-22T02:05:29.017Z,13.03
2019-05-22T02:05:29.590Z,13.04
2019-05-22T02:05:30.187Z,13.04
2019-05-22T02:05:30.788Z,13.06
2019-05-22T02:05:31.390Z,13.09
2019-05-22T02:05:31.988Z,13.04
2019-05-22T02:06:27.694Z,12.95
2019-05-22T02:06:28.264Z,13.00
2019-05-22T02:06:28.867Z,13.00
2019-05-22T02:06:29.462Z,13.03
2019-05-22T02:06:30.065Z,12.97
2019-05-22T02:06:30.666Z,12.95
2019-05-22T02:07:26.365Z,12.96
2019-05-22T02:07:26.942Z,13.02
2019-05-22T02:07:27.537Z,13.00
2019-05-22T02:07:28.139Z,12.96
2019-05-22T02:07:28.741Z,12.97
2019-05-22T02:07:30.544Z,13.02
2019-05-22T02:08:24.020Z,12.93
2019-05-22T02:08:24.593Z,12.92
2019-05-22T02:08:25.191Z,13.02
2019-05-22T02:08:25.790Z,12.99
2019-05-22T02:08:26.394Z,12.99
2019-05-22T02:09:22.693Z,12.93
2019-05-22T02:09:23.269Z,12.96
2019-05-22T02:09:23.888Z,13.03
2019-05-22T02:09:24.542Z,12.95
2019-05-22T02:09:25.126Z,12.97
2019-05-22T02:09:25.710Z,12.96
2019-05-22T02:10:20.351Z,12.87
2019-05-22T02:10:20.918Z,13.02
2019-05-22T02:10:21.519Z,12.99
2019-05-22T02:10:22.117Z,13.02
2019-05-22T02:10:22.719Z,12.99
2019-05-22T02:10:23.318Z,12.99
2019-05-22T02:11:19.020Z,12.89
2019-05-22T02:11:19.594Z,12.95
2019-05-22T02:11:20.194Z,12.97
2019-05-22T02:11:20.793Z,12.96
2019-05-22T02:11:21.395Z,12.96
2019-05-22T02:11:23.192Z,13.04
2019-05-22T02:12:17.696Z,12.96
2019-05-22T02:12:18.326Z,12.99
2019-05-22T02:12:18.871Z,12.99
2019-05-22T02:12:19.468Z,12.99
2019-05-22T02:12:20.069Z,12.97
2019-05-22T02:13:15.349Z,13.04
2019-05-22T02:13:15.922Z,12.97
2019-05-22T02:13:16.523Z,12.92
2019-05-22T02:13:17.121Z,12.99
2019-05-22T02:13:17.721Z,13.00
2019-05-22T02:13:18.326Z,12.96
2019-05-22T02:14:12.999Z,12.99
2019-05-22T02:14:13.573Z,13.02
2019-05-22T02:14:14.174Z,12.99
2019-05-22T02:14:14.830Z,13.00
2019-05-22T02:14:15.376Z,12.96
2019-05-22T02:14:15.973Z,13.00
2019-05-22T02:15:10.652Z,12.99
2019-05-22T02:15:11.228Z,12.99
2019-05-22T02:15:11.826Z,12.92
2019-05-22T02:15:12.428Z,13.00
2019-05-22T02:15:13.025Z,12.93
2019-05-22T02:16:08.303Z,12.88
2019-05-22T02:16:08.877Z,12.96
2019-05-22T02:16:09.483Z,12.96
2019-05-22T02:16:10.078Z,13.02
2019-05-22T02:16:10.677Z,12.92
2019-05-22T02:16:11.276Z,12.99
2019-05-22T02:17:06.980Z,12.96
2019-05-22T02:17:07.552Z,12.95
2019-05-22T02:17:08.153Z,12.99
2019-05-22T02:17:08.752Z,12.99
2019-05-22T02:17:09.359Z,13.00
2019-05-22T02:17:09.951Z,12.99
2019-05-22T02:18:05.655Z,12.92
2019-05-22T02:18:06.227Z,12.99
2019-05-22T02:18:06.828Z,12.99
2019-05-22T02:18:07.428Z,13.02
2019-05-22T02:18:08.028Z,13.02
2019-05-22T02:18:08.627Z,12.96
2019-05-22T02:19:04.330Z,12.89
2019-05-22T02:19:04.904Z,12.95
2019-05-22T02:19:05.503Z,13.03
2019-05-22T02:19:06.102Z,12.84
2019-05-22T02:19:06.702Z,12.96
2019-05-22T02:19:08.505Z,12.97
2019-05-22T02:20:03.036Z,12.97
2019-05-22T02:20:03.924Z,13.04
2019-05-22T02:20:04.454Z,12.97
2019-05-22T02:20:04.875Z,12.99
2019-05-22T02:20:05.392Z,13.02
2019-05-22T02:21:00.658Z,12.92
2019-05-22T02:21:01.232Z,13.00
2019-05-22T02:21:01.834Z,12.96
2019-05-22T02:21:02.434Z,13.00
2019-05-22T02:21:03.031Z,13.00
2019-05-22T02:21:03.631Z,12.99
2019-05-22T02:21:59.339Z,12.97
2019-05-22T02:21:59.907Z,12.95
2019-05-22T02:22:00.509Z,12.99
2019-05-22T02:22:01.107Z,12.96
2019-05-22T02:22:01.710Z,12.99
2019-05-22T02:22:02.312Z,13.03
2019-05-22T02:22:57.036Z,12.93
2019-05-22T02:22:57.561Z,12.97
2019-05-22T02:22:58.157Z,13.00
2019-05-22T02:22:58.758Z,13.00
2019-05-22T02:22:59.358Z,12.95
2019-05-22T02:23:01.159Z,13.06
2019-05-22T02:23:55.664Z,12.97
2019-05-22T02:23:56.235Z,12.93
2019-05-22T02:23:56.833Z,12.95
2019-05-22T02:23:57.433Z,12.96
2019-05-22T02:23:58.033Z,13.02
2019-05-22T02:24:54.337Z,12.92
2019-05-22T02:24:54.910Z,13.03
2019-05-22T02:24:55.511Z,12.96
2019-05-22T02:24:56.109Z,12.92
2019-05-22T02:24:56.709Z,12.96
2019-05-22T02:24:57.309Z,12.96
2019-05-22T02:25:51.992Z,12.99
2019-05-22T02:25:52.562Z,12.88
2019-05-22T02:25:53.162Z,12.97
2019-05-22T02:25:53.772Z,12.97
2019-05-22T02:25:54.362Z,13.00
2019-05-22T02:25:54.962Z,13.00
2019-05-22T02:26:49.641Z,12.97
2019-05-22T02:26:50.213Z,12.88
2019-05-22T02:26:50.814Z,12.97
2019-05-22T02:26:51.414Z,12.96
2019-05-22T02:26:52.012Z,12.95
2019-05-22T02:27:48.316Z,12.93
2019-05-22T02:27:48.890Z,12.96
2019-05-22T02:27:49.488Z,12.99
2019-05-22T02:27:50.089Z,12.84
2019-05-22T02:27:50.969Z,12.99
2019-05-22T02:27:51.500Z,12.96
2019-05-22T02:28:46.996Z,12.97
2019-05-22T02:28:47.567Z,12.99
2019-05-22T02:28:48.171Z,12.97
2019-05-22T02:28:48.765Z,12.93
2019-05-22T02:28:49.364Z,12.99
2019-05-22T02:28:49.969Z,13.02
2019-05-22T02:29:44.645Z,13.03
2019-05-22T02:29:45.218Z,12.99
2019-05-22T02:29:45.818Z,12.97
2019-05-22T02:29:46.417Z,12.99
2019-05-22T02:29:47.019Z,12.99
2019-05-22T02:29:48.818Z,12.95
2019-05-22T02:30:42.301Z,12.85
2019-05-22T02:30:42.870Z,12.93
2019-05-22T02:30:43.481Z,12.97
2019-05-22T02:30:44.068Z,12.87
2019-05-22T02:30:44.669Z,12.89
2019-05-22T02:31:39.950Z,12.88
2019-05-22T02:31:40.522Z,12.96
2019-05-22T02:31:41.121Z,12.84
2019-05-22T02:31:41.721Z,12.89
2019-05-22T02:31:42.324Z,12.96
2019-05-22T02:31:42.921Z,12.85
2019-05-22T02:32:38.623Z,12.97
2019-05-22T02:32:39.202Z,12.99
2019-05-22T02:32:39.795Z,12.87
2019-05-22T02:32:40.395Z,12.95
2019-05-22T02:32:41.000Z,12.85
2019-05-22T02:32:41.607Z,12.97
2019-05-22T02:33:37.299Z,12.96
2019-05-22T02:33:37.870Z,12.95
2019-05-22T02:33:38.473Z,12.96
2019-05-22T02:33:39.071Z,12.89
2019-05-22T02:33:39.671Z,12.97
2019-05-22T02:33:40.271Z,12.87
2019-05-22T02:34:34.952Z,13.03
2019-05-22T02:34:35.524Z,12.87
2019-05-22T02:34:36.126Z,12.93
2019-05-22T02:34:36.725Z,12.99
2019-05-22T02:34:37.328Z,13.00
2019-05-22T02:35:32.603Z,12.96
2019-05-22T02:35:33.177Z,12.99
2019-05-22T02:35:33.863Z,13.00
2019-05-22T02:35:34.380Z,13.03
2019-05-22T02:35:34.976Z,12.97
2019-05-22T02:35:35.578Z,12.99
2019-05-22T02:39:38.265Z,12.87
2019-05-22T02:39:38.845Z,12.87
2019-05-22T02:39:39.444Z,12.84
2019-05-22T02:39:40.037Z,12.87
2019-05-22T02:39:40.639Z,12.97
2019-05-22T02:39:41.328Z,12.87
2019-05-22T02:40:39.406Z,12.92
2019-05-22T02:40:39.968Z,12.85
2019-05-22T02:40:40.569Z,12.89
2019-05-22T02:40:41.169Z,12.85
2019-05-22T02:40:41.771Z,12.88
2019-05-22T02:40:42.370Z,12.97
2019-05-22T02:41:38.075Z,12.84
2019-05-22T02:41:38.649Z,13.02
2019-05-22T02:41:39.243Z,12.87
2019-05-22T02:41:39.844Z,12.99
2019-05-22T02:41:40.445Z,12.87
2019-05-22T02:41:41.046Z,12.96
2019-05-22T02:42:36.749Z,12.85
2019-05-22T02:42:37.321Z,12.96
2019-05-22T02:42:37.920Z,12.96
2019-05-22T02:42:38.520Z,13.03
2019-05-22T02:42:39.126Z,13.02
2019-05-22T02:42:39.720Z,12.92
2019-05-22T02:43:35.424Z,12.82
2019-05-22T02:43:36.000Z,12.87
2019-05-22T02:43:36.607Z,12.96
2019-05-22T02:43:37.199Z,12.97
2019-05-22T02:43:37.797Z,13.03
2019-05-22T02:43:39.594Z,12.89
2019-05-22T02:44:33.076Z,12.87
2019-05-22T02:44:33.654Z,12.89
2019-05-22T02:44:34.248Z,12.89
2019-05-22T02:44:34.869Z,12.93
2019-05-22T02:44:35.449Z,12.85
2019-05-22T02:45:30.728Z,12.89
2019-05-22T02:45:31.299Z,12.88
2019-05-22T02:45:31.919Z,12.84
2019-05-22T02:45:32.501Z,12.84
2019-05-22T02:45:33.104Z,12.87
2019-05-22T02:45:33.698Z,12.84
2019-05-22T02:46:28.379Z,12.79
2019-05-22T02:46:28.951Z,12.81
2019-05-22T02:46:29.553Z,12.82
2019-05-22T02:46:30.151Z,12.84
2019-05-22T02:46:30.751Z,12.79
2019-05-22T02:46:31.351Z,12.85
2019-05-22T02:47:26.031Z,12.84
2019-05-22T02:47:26.613Z,12.87
2019-05-22T02:47:27.204Z,12.88
2019-05-22T02:47:27.803Z,12.85
2019-05-22T02:47:28.404Z,12.88
2019-05-22T02:48:23.683Z,12.92
2019-05-22T02:48:24.255Z,12.85
2019-05-22T02:48:24.855Z,12.87
2019-05-22T02:48:25.458Z,12.84
2019-05-22T02:48:26.056Z,12.81
2019-05-22T02:48:26.655Z,12.87
2019-05-22T02:49:21.336Z,12.89
2019-05-22T02:49:21.907Z,12.89
2019-05-22T02:49:22.506Z,12.84
2019-05-22T02:49:23.111Z,12.85
2019-05-22T02:49:23.710Z,12.99
2019-05-22T02:49:24.306Z,12.97
2019-05-22T02:50:18.987Z,12.87
2019-05-22T02:50:19.559Z,12.89
2019-05-22T02:50:20.231Z,12.99
2019-05-22T02:50:20.765Z,12.97
2019-05-22T02:50:21.359Z,13.00
2019-05-22T02:51:16.639Z,12.99
2019-05-22T02:51:17.211Z,13.02
2019-05-22T02:51:17.810Z,12.87